Time;durP1;ratioP1;P1;durP2;ratioP2;P2;SDS_P1;SDS_P2;PMS_P1;PMS_P2;Temp;Humidity;BMP_temperature;BMP_pressure;BME280_temperature;BME280_humidity;BME280_pressure;Samples;Min_cycle;Max_cycle;Signal;HPM_P1;HPM_P2
2023/07/07 00:00:49;;;;;;;9.38;6.07;;;18.00;99.90;;;;;;4177176;28;20074;-60
2023/07/07 00:02:51;;;;;;;8.07;6.22;;;17.90;99.90;;;;;;4178241;28;20033;-60
2023/07/07 00:04:52;;;;;;;8.50;6.05;;;18.00;99.90;;;;;;4177135;28;20033;-60
2023/07/07 00:06:53;;;;;;;5.93;4.95;;;17.90;99.90;;;;;;4178601;28;20420;-61
2023/07/07 00:08:55;;;;;;;6.07;5.15;;;18.00;99.90;;;;;;4177131;28;20043;-60
2023/07/07 00:10:58;;;;;;;8.07;4.60;;;18.00;99.90;;;;;;4178003;28;20029;-60
2023/07/07 00:12:59;;;;;;;6.22;4.90;;;18.10;99.90;;;;;;4176744;28;20554;-61
2023/07/07 00:15:00;;;;;;;7.38;5.72;;;18.10;99.90;;;;;;4177607;28;20116;-60
2023/07/07 00:17:02;;;;;;;5.75;4.85;;;18.10;99.90;;;;;;4176695;28;20049;-60
2023/07/07 00:19:04;;;;;;;6.13;4.47;;;18.10;99.90;;;;;;4177212;28;20037;-61
2023/07/07 00:21:05;;;;;;;7.15;4.88;;;18.10;99.90;;;;;;4159317;28;20080;-61
2023/07/07 00:23:07;;;;;;;7.55;4.80;;;18.00;99.90;;;;;;4176806;28;20091;-60
2023/07/07 00:25:08;;;;;;;6.20;4.80;;;18.00;99.90;;;;;;4177313;28;20025;-62
2023/07/07 00:27:09;;;;;;;5.75;4.60;;;18.00;99.90;;;;;;4176168;28;20033;-60
2023/07/07 00:29:10;;;;;;;7.63;4.78;;;18.00;99.90;;;;;;4177186;28;20033;-60
2023/07/07 00:31:12;;;;;;;6.05;4.40;;;18.00;99.90;;;;;;4176709;28;20029;-60
2023/07/07 00:33:13;;;;;;;7.15;4.85;;;18.00;99.90;;;;;;4177680;28;20049;-61
2023/07/07 00:35:14;;;;;;;5.63;4.47;;;18.00;99.90;;;;;;4176760;28;20071;-60
2023/07/07 00:37:15;;;;;;;5.57;4.18;;;18.00;99.90;;;;;;4178270;28;20037;-61
2023/07/07 00:39:16;;;;;;;8.32;4.82;;;18.00;99.90;;;;;;4176564;28;20461;-60
2023/07/07 00:41:17;;;;;;;6.75;4.97;;;18.00;99.90;;;;;;4177742;28;20095;-59
2023/07/07 00:43:20;;;;;;;8.23;4.68;;;17.90;99.90;;;;;;4176907;28;20017;-61
2023/07/07 00:45:21;;;;;;;9.82;4.80;;;17.90;99.90;;;;;;4176645;28;20114;-61
2023/07/07 00:47:22;;;;;;;11.48;5.05;;;17.70;99.90;;;;;;4177112;28;20461;-61
2023/07/07 00:49:24;;;;;;;6.50;4.47;;;17.70;99.90;;;;;;4177031;28;20080;-60
2023/07/07 00:51:38;;;;;;;8.55;5.38;;;17.50;99.90;;;;;;4159609;28;20045;-60
2023/07/07 00:53:42;;;;;;;9.93;5.35;;;17.50;99.90;;;;;;4176173;28;20071;-60
2023/07/07 00:56:05;;;;;;;7.15;4.35;;;17.50;99.90;;;;;;4176665;28;20082;-61
2023/07/07 00:58:10;;;;;;;7.90;4.45;;;17.50;99.90;;;;;;4176117;28;20057;-62
2023/07/07 01:00:12;;;;;;;5.25;4.05;;;17.40;99.90;;;;;;4177268;28;20488;-60
2023/07/07 01:02:24;;;;;;;6.78;4.55;;;17.40;99.90;;;;;;4176080;28;20029;-60
2023/07/07 01:04:27;;;;;;;6.53;3.80;;;17.40;99.90;;;;;;4177232;28;20037;-60
2023/07/07 01:06:33;;;;;;;10.40;4.80;;;17.40;99.90;;;;;;4176428;28;20048;-61
2023/07/07 01:08:36;;;;;;;7.40;4.18;;;17.40;99.90;;;;;;4176799;28;20044;-60
2023/07/07 01:10:37;;;;;;;8.90;4.30;;;17.30;99.90;;;;;;4176418;28;20370;-60
2023/07/07 01:12:38;;;;;;;6.10;4.95;;;17.30;99.90;;;;;;4177502;28;20028;-60
2023/07/07 01:14:41;;;;;;;7.22;4.22;;;17.30;99.90;;;;;;4176436;28;20470;-60
2023/07/07 01:16:48;;;;;;;7.43;4.53;;;17.30;99.90;;;;;;4177555;28;20041;-61
2023/07/07 01:19:27;;;;;;;5.65;4.47;;;17.30;99.90;;;;;;4176360;28;20048;-60
2023/07/07 01:21:37;;;;;;;5.40;4.20;;;17.30;99.90;;;;;;4177441;28;20041;-60
2023/07/07 01:23:41;;;;;;;7.80;4.03;;;17.30;99.90;;;;;;4175757;28;20056;-60
2023/07/07 01:25:55;;;;;;;10.43;4.45;;;17.30;99.90;;;;;;4177422;28;20528;-60
2023/07/07 01:28:20;;;;;;;6.68;4.38;;;17.30;99.90;;;;;;4176368;28;20488;-61
2023/07/07 01:30:34;;;;;;;5.95;4.55;;;17.30;99.90;;;;;;4177133;28;20032;-61
2023/07/07 01:32:37;;;;;;;6.30;4.43;;;17.20;99.90;;;;;;4175871;28;20057;-61
2023/07/07 01:34:38;;;;;;;6.38;4.38;;;17.30;99.90;;;;;;4176942;28;20024;-61
2023/07/07 01:36:39;;;;;;;7.32;4.50;;;17.20;99.90;;;;;;4176683;28;20091;-60
2023/07/07 01:38:44;;;;;;;7.43;4.28;;;17.20;99.90;;;;;;4176559;28;20049;-60
2023/07/07 01:41:16;;;;;;;6.40;4.10;;;17.10;99.90;;;;;;4176465;28;20049;-60
2023/07/07 01:43:26;;;;;;;7.70;4.15;;;17.10;99.90;;;;;;4179493;28;20535;-61
2023/07/07 01:45:49;;;;;;;6.70;4.70;;;17.10;99.90;;;;;;4179639;28;20439;-61
2023/07/07 01:47:58;;;;;;;5.88;4.20;;;17.10;99.90;;;;;;4179264;28;20041;-60
2023/07/07 01:50:05;;;;;;;6.88;4.20;;;17.00;99.90;;;;;;4179343;28;20083;-60
2023/07/07 01:52:09;;;;;;;12.05;5.40;;;17.00;99.90;;;;;;4179111;28;20489;-60
2023/07/07 01:54:12;;;;;;;10.73;4.32;;;17.10;99.90;;;;;;4160854;28;20037;-61
2023/07/07 01:56:18;;;;;;;5.25;4.53;;;17.20;99.90;;;;;;4180266;28;20021;-61
2023/07/07 01:58:21;;;;;;;6.63;3.90;;;17.20;99.90;;;;;;4179089;28;20037;-60
2023/07/07 02:00:23;;;;;;;6.47;4.28;;;17.20;99.90;;;;;;4180321;28;20025;-61
2023/07/07 02:02:25;;;;;;;7.50;4.20;;;17.20;99.90;;;;;;4178179;28;20095;-61
2023/07/07 02:04:26;;;;;;;6.93;4.18;;;17.20;99.90;;;;;;4180276;28;20523;-60
2023/07/07 02:06:28;;;;;;;6.75;4.15;;;17.20;99.90;;;;;;4179536;28;20090;-61
2023/07/07 02:08:29;;;;;;;6.13;4.55;;;17.10;99.90;;;;;;4180232;28;20036;-61
2023/07/07 02:10:30;;;;;;;9.00;4.43;;;17.20;99.90;;;;;;4179104;28;20041;-61
2023/07/07 02:12:31;;;;;;;6.07;4.15;;;17.20;99.90;;;;;;4179543;28;20083;-62
2023/07/07 02:14:33;;;;;;;6.53;4.78;;;17.20;99.90;;;;;;4178937;28;20519;-60
2023/07/07 02:16:34;;;;;;;6.32;3.88;;;17.30;99.90;;;;;;4179892;28;20037;-61
2023/07/07 02:18:37;;;;;;;5.80;4.43;;;17.40;99.90;;;;;;4178877;28;20142;-61
2023/07/07 02:20:38;;;;;;;5.32;3.63;;;17.40;99.90;;;;;;4179631;28;20033;-61
2023/07/07 02:22:40;;;;;;;5.70;4.00;;;17.40;99.90;;;;;;4178957;28;20021;-61
2023/07/07 02:24:41;;;;;;;7.43;4.40;;;17.40;99.90;;;;;;4179280;28;20079;-60
2023/07/07 02:26:42;;;;;;;8.38;4.05;;;17.40;99.90;;;;;;4178934;28;20044;-60
2023/07/07 02:28:44;;;;;;;6.32;4.50;;;17.40;99.90;;;;;;4178909;28;20103;-60
2023/07/07 02:30:45;;;;;;;4.95;3.80;;;17.40;99.90;;;;;;4179610;28;20045;-60
2023/07/07 02:32:46;;;;;;;5.65;4.43;;;17.40;99.90;;;;;;4177985;28;20049;-60
2023/07/07 02:34:47;;;;;;;9.23;4.55;;;17.40;99.90;;;;;;4179054;28;20036;-60
2023/07/07 02:36:51;;;;;;;9.35;4.80;;;17.50;99.90;;;;;;4178882;28;20037;-58
2023/07/07 02:38:53;;;;;;;10.55;5.68;;;17.40;99.90;;;;;;4179771;28;20032;-61
2023/07/07 02:40:54;;;;;;;7.95;4.53;;;17.40;99.90;;;;;;4160369;28;20091;-67
2023/07/07 02:42:55;;;;;;;6.65;4.25;;;17.40;99.90;;;;;;4179786;28;20033;-61
2023/07/07 02:44:56;;;;;;;8.25;4.05;;;17.40;99.90;;;;;;4178378;28;20033;-60
2023/07/07 02:46:57;;;;;;;6.65;4.40;;;17.50;99.90;;;;;;4179178;28;20037;-61
2023/07/07 02:48:58;;;;;;;6.43;4.47;;;17.50;99.90;;;;;;4177641;28;20045;-61
2023/07/07 02:51:02;;;;;;;6.22;4.60;;;17.50;99.90;;;;;;4179395;28;20079;-63
2023/07/07 02:53:03;;;;;;;7.15;4.40;;;17.60;99.90;;;;;;4177250;28;20033;-61
2023/07/07 02:55:04;;;;;;;11.43;4.75;;;17.60;99.90;;;;;;4179013;28;20087;-61
2023/07/07 02:57:06;;;;;;;9.85;4.80;;;17.60;99.90;;;;;;4178637;28;20106;-62
2023/07/07 02:59:07;;;;;;;8.25;4.63;;;17.60;99.90;;;;;;4178573;28;20029;-61
2023/07/07 03:01:14;;;;;;;9.35;5.30;;;17.70;99.90;;;;;;4179274;28;20102;-61
2023/07/07 03:03:16;;;;;;;8.65;4.30;;;17.70;99.90;;;;;;4178148;28;20025;-61
2023/07/07 03:05:19;;;;;;;6.50;4.43;;;17.80;99.90;;;;;;4179310;28;20037;-61
2023/07/07 03:07:20;;;;;;;6.55;4.68;;;17.70;99.90;;;;;;4177836;28;20032;-61
2023/07/07 03:09:21;;;;;;;5.85;4.18;;;17.70;99.90;;;;;;4179044;28;20251;-61
2023/07/07 03:11:23;;;;;;;4.88;3.38;;;17.60;99.90;;;;;;4177991;28;20036;-60
2023/07/07 03:13:24;;;;;;;8.48;4.18;;;17.60;99.90;;;;;;4178793;28;20037;-61
2023/07/07 03:15:38;;;;;;;5.68;4.47;;;17.60;99.90;;;;;;4177943;28;20499;-60
2023/07/07 03:17:39;;;;;;;4.95;4.20;;;17.60;99.90;;;;;;4179026;28;20102;-62
2023/07/07 03:19:42;;;;;;;5.32;4.40;;;17.60;99.90;;;;;;4177380;28;20431;-61
2023/07/07 03:21:43;;;;;;;8.00;4.15;;;17.60;99.90;;;;;;4178424;28;20045;-63
2023/07/07 03:23:44;;;;;;;5.75;4.35;;;17.60;99.90;;;;;;4177773;28;20033;-61
2023/07/07 03:25:45;;;;;;;6.95;4.20;;;17.70;99.90;;;;;;4178994;28;20380;-61
2023/07/07 03:27:47;;;;;;;6.30;4.43;;;17.70;99.90;;;;;;4177887;28;20098;-61
2023/07/07 03:29:50;;;;;;;11.27;5.32;;;17.80;99.90;;;;;;4178540;28;20049;-62
2023/07/07 03:31:52;;;;;;;8.23;4.40;;;18.00;99.90;;;;;;4177784;28;20151;-61
2023/07/07 03:33:57;;;;;;;7.28;4.18;;;18.10;99.90;;;;;;4178017;28;20106;-61
2023/07/07 03:35:58;;;;;;;5.72;4.30;;;18.20;99.90;;;;;;4178402;28;20028;-61
2023/07/07 03:37:59;;;;;;;5.45;4.30;;;18.40;99.90;;;;;;4160159;28;20045;-62
2023/07/07 03:40:00;;;;;;;5.40;4.40;;;18.40;99.90;;;;;;4178529;28;20125;-62
2023/07/07 03:42:01;;;;;;;5.88;3.92;;;18.50;99.90;;;;;;4177006;28;20033;-61
2023/07/07 03:44:03;;;;;;;6.25;4.30;;;18.50;99.90;;;;;;4178770;28;20025;-63
2023/07/07 03:46:04;;;;;;;7.30;4.10;;;18.60;99.90;;;;;;4177635;28;20090;-59
2023/07/07 03:48:05;;;;;;;4.72;3.45;;;18.60;99.90;;;;;;4178442;28;20037;-61
2023/07/07 03:50:08;;;;;;;7.43;4.07;;;18.60;99.90;;;;;;4177387;28;20025;-62
2023/07/07 03:52:09;;;;;;;9.65;4.50;;;18.70;99.90;;;;;;4170495;28;20037;-61
2023/07/07 03:54:10;;;;;;;6.57;4.10;;;18.70;99.90;;;;;;4176807;28;20029;-60
2023/07/07 03:56:12;;;;;;;13.90;5.93;;;18.70;99.90;;;;;;4177579;28;20134;-60
2023/07/07 03:58:13;;;;;;;11.07;6.63;;;18.70;99.90;;;;;;4167766;28;20102;-61
2023/07/07 04:00:15;;;;;;;5.72;4.30;;;18.70;99.90;;;;;;4176468;28;20037;-61
2023/07/07 04:02:16;;;;;;;6.07;4.07;;;18.70;99.90;;;;;;4177030;28;20124;-61
2023/07/07 04:04:17;;;;;;;5.95;4.35;;;18.60;99.90;;;;;;4177040;28;20045;-60
2023/07/07 04:06:19;;;;;;;5.75;4.30;;;18.60;99.90;;;;;;4166396;28;20033;-60
2023/07/07 04:08:26;;;;;;;6.50;4.55;;;18.60;99.90;;;;;;4165826;28;20032;-59
2023/07/07 04:10:27;;;;;;;5.78;3.97;;;18.60;99.90;;;;;;4177646;28;20071;-61
2023/07/07 04:12:29;;;;;;;6.60;4.20;;;18.60;99.90;;;;;;4176337;28;20385;-61
2023/07/07 04:14:30;;;;;;;5.45;4.25;;;18.60;99.90;;;;;;4178423;28;20028;-61
2023/07/07 04:16:31;;;;;;;9.15;4.57;;;18.70;99.90;;;;;;4176137;28;20037;-61
2023/07/07 04:18:33;;;;;;;6.43;3.90;;;18.60;99.90;;;;;;4177057;28;20083;-60
2023/07/07 04:20:34;;;;;;;5.15;4.15;;;18.60;99.90;;;;;;4176242;28;20214;-61
2023/07/07 04:22:35;;;;;;;6.47;4.10;;;18.70;99.90;;;;;;4177166;28;20098;-61
2023/07/07 04:24:36;;;;;;;8.77;4.18;;;19.00;99.90;;;;;;4176501;28;20033;-61
2023/07/07 04:26:39;;;;;;;7.63;3.97;;;19.20;99.90;;;;;;4177303;28;20083;-60
2023/07/07 04:28:41;;;;;;;6.15;3.55;;;19.30;99.90;;;;;;4176516;28;20147;-59
2023/07/07 04:30:43;;;;;;;6.03;3.78;;;19.50;99.90;;;;;;4177684;28;20542;-57
2023/07/07 04:32:44;;;;;;;7.05;4.25;;;19.60;99.90;;;;;;4176181;28;20056;-59
2023/07/07 04:34:45;;;;;;;5.40;3.83;;;19.80;99.90;;;;;;4177252;28;20547;-59
2023/07/07 04:36:47;;;;;;;4.25;3.70;;;20.30;99.90;;;;;;4175538;28;20112;-61
2023/07/07 04:38:49;;;;;;;7.22;3.55;;;20.70;99.90;;;;;;4174624;28;20440;-62
2023/07/07 04:40:50;;;;;;;4.88;3.83;;;21.20;99.90;;;;;;4176815;28;20142;-60
2023/07/07 04:42:51;;;;;;;6.43;3.92;;;21.60;99.90;;;;;;4175580;28;20087;-60
2023/07/07 04:44:52;;;;;;;6.82;3.35;;;21.80;99.90;;;;;;4176747;28;20362;-60
2023/07/07 04:46:53;;;;;;;4.97;3.40;;;22.00;99.90;;;;;;4175554;28;20040;-61
2023/07/07 04:48:55;;;;;;;9.13;3.60;;;22.10;99.90;;;;;;4176872;28;20099;-61
2023/07/07 04:51:01;;;;;;;4.10;3.40;;;22.30;99.90;;;;;;4175741;28;20087;-58
2023/07/07 04:53:02;;;;;;;5.30;3.20;;;22.40;99.90;;;;;;4177472;28;20095;-58
2023/07/07 04:55:04;;;;;;;5.50;4.03;;;22.60;99.90;;;;;;4175200;28;20099;-60
2023/07/07 04:57:05;;;;;;;5.57;3.60;;;23.00;99.90;;;;;;4177369;28;20029;-60
2023/07/07 04:59:07;;;;;;;7.20;3.42;;;23.50;99.90;;;;;;4176170;28;20488;-60
2023/07/07 05:01:15;;;;;;;6.55;4.07;;;24.20;99.90;;;;;;4177549;28;20033;-60
2023/07/07 05:03:16;;;;;;;7.63;3.90;;;24.80;99.90;;;;;;4175576;28;20143;-59
2023/07/07 05:05:17;;;;;;;5.30;3.58;;;24.60;99.90;;;;;;4177345;28;20613;-61
2023/07/07 05:07:19;;;;;;;5.25;3.35;;;24.30;99.90;;;;;;4176789;28;20055;-57
2023/07/07 05:09:20;;;;;;;6.00;3.67;;;24.00;99.90;;;;;;4176503;28;20037;-59
2023/07/07 05:11:24;;;;;;;4.53;3.80;;;24.10;99.90;;;;;;4176494;28;20021;-60
2023/07/07 05:13:26;;;;;;;6.50;3.53;;;24.20;99.90;;;;;;4176905;28;20305;-62
2023/07/07 05:15:28;;;;;;;8.48;3.83;;;24.90;99.90;;;;;;4177330;28;20466;-60
2023/07/07 05:17:29;;;;;;;8.98;4.28;;;25.40;99.90;;;;;;4179615;28;20439;-60
2023/07/07 05:19:30;;;;;;;3.92;3.55;;;25.70;99.90;;;;;;4179558;28;20052;-57
2023/07/07 05:21:31;;;;;;;7.40;4.20;;;25.40;99.90;;;;;;4179388;28;20028;-58
2023/07/07 05:23:32;;;;;;;8.40;3.25;;;25.40;99.90;;;;;;4179344;28;20114;-61
2023/07/07 05:25:33;;;;;;;5.15;3.30;;;25.30;99.90;;;;;;4178529;28;20121;-60
2023/07/07 05:27:34;;;;;;;6.75;3.55;;;25.70;99.90;;;;;;4179290;28;20033;-59
2023/07/07 05:29:35;;;;;;;6.07;3.95;;;26.10;99.90;;;;;;4178569;28;20153;-60
2023/07/07 05:31:37;;;;;;;7.68;3.20;;;26.90;99.90;;;;;;4179785;28;20048;-60
2023/07/07 05:33:39;;;;;;;6.63;3.60;;;27.70;99.90;;;;;;4178994;28;20516;-59
2023/07/07 05:35:54;;;;;;;9.40;4.78;;;28.00;99.90;;;;;;4180388;28;20082;-60
2023/07/07 05:37:56;;;;;;;4.90;2.63;;;28.30;99.90;;;;;;4178924;28;20111;-60
2023/07/07 05:39:57;;;;;;;3.95;3.10;;;28.80;99.90;;;;;;4180300;28;20483;-60
2023/07/07 05:41:58;;;;;;;6.38;3.25;;;28.70;99.90;;;;;;4178951;28;20079;-60
2023/07/07 05:43:59;;;;;;;4.10;2.90;;;28.90;99.90;;;;;;4178704;28;20036;-59
2023/07/07 05:46:04;;;;;;;6.72;3.30;;;29.10;99.90;;;;;;4179058;28;20025;-60
2023/07/07 05:48:06;;;;;;;4.90;3.08;;;29.10;99.90;;;;;;4179385;28;20029;-60
2023/07/07 05:50:08;;;;;;;4.43;2.88;;;29.40;99.90;;;;;;4178579;28;20033;-59
2023/07/07 05:52:09;;;;;;;5.57;2.90;;;29.70;99.90;;;;;;4179256;28;20025;-60
2023/07/07 05:54:11;;;;;;;4.22;2.95;;;29.70;99.90;;;;;;4179622;28;20036;-59
2023/07/07 05:56:23;;;;;;;6.38;2.72;;;29.90;99.70;;;;;;4178232;28;20351;-60
2023/07/07 05:58:24;;;;;;;5.47;3.35;;;30.30;98.30;;;;;;4179047;28;20138;-59
2023/07/07 06:00:27;;;;;;;4.60;3.33;;;30.40;98.70;;;;;;4178176;28;20037;-59
2023/07/07 06:02:28;;;;;;;4.05;2.90;;;30.10;98.70;;;;;;4179095;28;20485;-59
2023/07/07 06:04:29;;;;;;;5.40;3.30;;;30.00;98.90;;;;;;4178866;28;20551;-59
2023/07/07 06:06:31;;;;;;;5.10;3.45;;;30.50;98.70;;;;;;4180111;28;20029;-59
2023/07/07 06:08:32;;;;;;;4.88;3.10;;;30.30;98.20;;;;;;4178932;28;20039;-59
2023/07/07 06:10:33;;;;;;;3.50;2.90;;;30.10;98.30;;;;;;4179389;28;20046;-61
2023/07/07 06:12:35;;;;;;;3.40;2.88;;;30.20;98.30;;;;;;4178641;28;20481;-61
2023/07/07 06:14:36;;;;;;;3.63;3.33;;;30.70;98.00;;;;;;4179862;28;20025;-59
2023/07/07 06:16:37;;;;;;;5.25;2.88;;;31.30;97.50;;;;;;4177718;28;20107;-59
2023/07/07 06:18:39;;;;;;;4.25;2.80;;;31.80;97.00;;;;;;4179394;28;20086;-60
2023/07/07 06:20:40;;;;;;;9.13;2.70;;;32.40;96.40;;;;;;4179099;28;20025;-60
2023/07/07 06:22:41;;;;;;;6.05;3.60;;;32.60;96.00;;;;;;4179176;28;20033;-60
2023/07/07 06:24:43;;;;;;;4.50;2.80;;;32.80;95.50;;;;;;4178203;28;20048;-60
2023/07/07 06:26:44;;;;;;;4.53;3.10;;;32.00;95.80;;;;;;4176773;28;20560;-60
2023/07/07 06:28:45;;;;;;;5.60;2.95;;;32.10;95.80;;;;;;4178707;28;20484;-60
2023/07/07 06:30:48;;;;;;;3.30;2.95;;;32.30;95.70;;;;;;4178192;28;20106;-61
2023/07/07 06:32:49;;;;;;;4.40;2.65;;;32.80;95.20;;;;;;4178522;28;20061;-60
2023/07/07 06:34:50;;;;;;;4.18;2.97;;;33.20;94.80;;;;;;4178226;28;20033;-61
2023/07/07 06:36:52;;;;;;;5.15;3.10;;;33.60;94.30;;;;;;4179767;28;20032;-60
2023/07/07 06:38:53;;;;;;;4.72;2.50;;;33.70;93.90;;;;;;4177539;28;20052;-61
2023/07/07 06:40:54;;;;;;;5.53;2.95;;;33.30;93.70;;;;;;4179324;28;20535;-61
2023/07/07 06:42:55;;;;;;;4.50;2.75;;;33.30;93.70;;;;;;4178373;28;20027;-59
2023/07/07 06:44:56;;;;;;;7.47;2.90;;;33.50;93.50;;;;;;4179151;28;20033;-59
2023/07/07 06:46:57;;;;;;;3.70;2.70;;;33.50;93.30;;;;;;4177856;28;20181;-60
2023/07/07 06:48:59;;;;;;;4.47;2.88;;;33.80;93.20;;;;;;4178889;28;20028;-59
2023/07/07 06:51:00;;;;;;;3.40;2.80;;;33.50;92.90;;;;;;4178395;28;20080;-60
2023/07/07 06:53:01;;;;;;;7.95;3.45;;;33.10;92.90;;;;;;4178988;28;20086;-60
2023/07/07 06:55:03;;;;;;;4.78;2.60;;;32.90;93.20;;;;;;4178145;28;20021;-61
2023/07/07 06:57:04;;;;;;;3.17;2.85;;;33.00;93.20;;;;;;4177467;28;20033;-65
2023/07/07 06:59:06;;;;;;;3.28;2.97;;;33.30;92.70;;;;;;4178907;28;20044;-63
2023/07/07 07:01:11;;;;;;;4.57;3.25;;;32.80;92.90;;;;;;4159953;28;20406;-60
2023/07/07 07:03:12;;;;;;;10.10;3.25;;;32.10;93.50;;;;;;4177611;28;20102;-59
2023/07/07 07:05:14;;;;;;;5.18;2.97;;;32.10;93.70;;;;;;4177075;28;20481;-68
2023/07/07 07:07:15;;;;;;;3.97;3.10;;;32.20;93.70;;;;;;4179474;28;20029;-63
2023/07/07 07:09:16;;;;;;;4.90;2.83;;;31.90;93.70;;;;;;4177894;28;20440;-65
2023/07/07 07:11:17;;;;;;;9.05;3.25;;;31.90;93.90;;;;;;4179106;28;20090;-65
2023/07/07 07:13:19;;;;;;;9.60;3.17;;;32.40;93.80;;;;;;4177193;28;20489;-60
2023/07/07 07:15:20;;;;;;;4.10;2.90;;;32.60;93.70;;;;;;4178354;28;20033;-60
2023/07/07 07:17:23;;;;;;;6.20;2.90;;;32.60;93.60;;;;;;4176682;28;20037;-60
2023/07/07 07:19:24;;;;;;;4.15;3.30;;;32.70;93.30;;;;;;4178600;28;20094;-61
2023/07/07 07:21:25;;;;;;;7.35;3.22;;;32.40;93.30;;;;;;4176765;28;20033;-61
2023/07/07 07:23:26;;;;;;;6.80;3.88;;;32.30;93.40;;;;;;4178360;28;20075;-74
2023/07/07 07:25:28;;;;;;;6.53;3.00;;;32.50;93.40;;;;;;4177269;28;20041;-59
2023/07/07 07:27:29;;;;;;;4.20;3.13;;;32.20;93.00;;;;;;4177621;28;20033;-61
2023/07/07 07:29:30;;;;;;;3.55;3.10;;;31.20;93.50;;;;;;4177468;28;20041;-69
2023/07/07 07:31:31;;;;;;;9.57;3.67;;;30.30;94.30;;;;;;4176681;28;20063;-61
2023/07/07 07:33:32;;;;;;;3.97;3.08;;;29.70;95.00;;;;;;4178057;28;20119;-60
2023/07/07 07:35:33;;;;;;;5.75;2.67;;;29.10;95.80;;;;;;4177140;28;20017;-62
2023/07/07 07:37:35;;;;;;;7.68;3.47;;;28.70;96.40;;;;;;4177910;28;20040;-66
2023/07/07 07:39:36;;;;;;;2.90;2.53;;;28.50;96.80;;;;;;4175975;28;20045;-65
2023/07/07 07:41:37;;;;;;;4.90;2.58;;;28.60;96.50;;;;;;4178134;28;20103;-69
2023/07/07 07:43:39;;;;;;;10.43;3.45;;;28.70;96.40;;;;;;4176241;28;20114;-65
2023/07/07 07:45:40;;;;;;;4.90;2.70;;;28.60;96.40;;;;;;4177361;28;20474;-63
2023/07/07 07:47:41;;;;;;;5.25;3.10;;;28.70;96.30;;;;;;4176001;28;20114;-61
2023/07/07 07:49:42;;;;;;;10.32;3.78;;;28.60;96.10;;;;;;4178341;28;20415;-64
2023/07/07 07:51:44;;;;;;;5.93;4.13;;;28.30;97.00;;;;;;4176363;28;20102;-60
2023/07/07 07:53:45;;;;;;;4.95;3.78;;;27.80;98.70;;;;;;4177836;28;20086;-63
2023/07/07 07:55:46;;;;;;;4.18;3.75;;;27.30;99.60;;;;;;4177202;28;20086;-70
2023/07/07 07:57:47;;;;;;;6.10;2.95;;;27.10;99.90;;;;;;4176495;28;20130;-66
2023/07/07 07:59:49;;;;;;;7.53;2.75;;;26.80;99.60;;;;;;4177334;28;20065;-61
2023/07/07 08:01:50;;;;;;;3.53;3.22;;;26.80;99.40;;;;;;4176519;28;20174;-60
2023/07/07 08:03:52;;;;;;;6.22;3.17;;;27.10;99.60;;;;;;4176781;28;20089;-59
2023/07/07 08:05:53;;;;;;;6.82;3.03;;;27.30;99.60;;;;;;4175998;28;20094;-59
2023/07/07 08:07:54;;;;;;;4.78;3.13;;;27.30;99.50;;;;;;4176994;28;20071;-61
2023/07/07 08:09:56;;;;;;;5.15;3.03;;;27.60;99.10;;;;;;4176818;28;20029;-67
2023/07/07 08:11:59;;;;;;;4.50;2.97;;;27.90;98.10;;;;;;4177717;28;20021;-59
2023/07/07 08:14:00;;;;;;;5.60;3.15;;;28.20;97.40;;;;;;4176743;28;20032;-60
2023/07/07 08:16:02;;;;;;;4.70;2.78;;;27.80;97.40;;;;;;4176964;28;20037;-59
2023/07/07 08:18:03;;;;;;;6.85;3.67;;;27.80;97.60;;;;;;4176495;28;20075;-61
2023/07/07 08:20:05;;;;;;;4.88;3.20;;;27.80;97.70;;;;;;4177802;28;20112;-59
2023/07/07 08:22:10;;;;;;;4.53;2.95;;;27.80;97.80;;;;;;4176572;28;20071;-69
2023/07/07 08:24:11;;;;;;;4.50;2.80;;;27.80;97.70;;;;;;4177462;28;20028;-71
2023/07/07 08:26:12;;;;;;;9.15;3.78;;;27.60;97.50;;;;;;4176593;28;20063;-64
2023/07/07 08:28:13;;;;;;;4.20;3.00;;;27.60;97.50;;;;;;4158624;28;20041;-59
2023/07/07 08:30:14;;;;;;;5.93;3.72;;;27.60;97.60;;;;;;4176596;28;20110;-59
2023/07/07 08:32:21;;;;;;;10.95;3.75;;;27.30;98.20;;;;;;4176204;28;20473;-60
2023/07/07 08:34:22;;;;;;;5.40;3.53;;;27.00;98.90;;;;;;4176097;28;20097;-60
2023/07/07 08:36:23;;;;;;;3.25;2.88;;;27.00;99.10;;;;;;4175616;28;20045;-64
2023/07/07 08:38:25;;;;;;;6.75;3.47;;;26.80;99.20;;;;;;4176492;28;20048;-63
2023/07/07 08:40:35;;;;;;;6.72;3.30;;;26.50;99.70;;;;;;4175121;28;20029;-57
2023/07/07 08:42:39;;;;;;;6.95;3.67;;;26.20;99.90;;;;;;4176301;28;20083;-60
2023/07/07 08:44:40;;;;;;;8.40;3.55;;;26.00;99.90;;;;;;4176420;28;20029;-60
2023/07/07 08:46:58;;;;;;;10.48;3.80;;;25.80;99.90;;;;;;4177307;28;20090;-64
2023/07/07 08:49:20;;;;;;;6.18;3.72;;;25.80;99.90;;;;;;4175451;28;20098;-62
2023/07/07 08:51:26;;;;;;;4.40;3.33;;;25.80;99.90;;;;;;4175949;28;20045;-60
2023/07/07 08:53:42;;;;;;;7.40;4.40;;;25.70;99.90;;;;;;4175574;28;20783;-60
2023/07/07 08:56:04;;;;;;;12.63;4.38;;;25.70;99.90;;;;;;4176288;28;20049;-60
2023/07/07 08:58:28;;;;;;;3.85;3.30;;;25.60;99.90;;;;;;4175444;28;20045;-63
2023/07/07 09:00:45;;;;;;;5.72;3.80;;;25.70;99.90;;;;;;4176063;28;20061;-60
2023/07/07 09:02:52;;;;;;;4.00;3.60;;;25.70;99.90;;;;;;4176802;28;20400;-68
2023/07/07 09:04:56;;;;;;;5.18;3.78;;;25.30;99.90;;;;;;4175933;28;20105;-60
2023/07/07 09:07:19;;;;;;;15.38;5.45;;;25.10;99.90;;;;;;4176273;28;20102;-72
2023/07/07 09:09:56;;;;;;;5.47;4.00;;;25.10;99.90;;;;;;4176252;28;20029;-63
2023/07/07 09:12:24;;;;;;;8.63;4.15;;;24.90;99.90;;;;;;4176689;28;20063;-60
2023/07/07 09:14:27;;;;;;;11.05;5.07;;;24.60;99.90;;;;;;4175911;28;20025;-65
2023/07/07 09:16:38;;;;;;;18.02;4.97;;;24.60;99.90;;;;;;4177233;28;20033;-61
2023/07/07 09:18:47;;;;;;;11.40;5.20;;;24.60;99.90;;;;;;4175711;28;20555;-61
2023/07/07 09:20:56;;;;;;;5.55;3.60;;;24.60;99.90;;;;;;4176445;28;20067;-61
2023/07/07 09:23:20;;;;;;;6.25;4.75;;;24.40;99.90;;;;;;4175624;28;20063;-66
2023/07/07 09:25:28;;;;;;;6.25;4.38;;;24.60;99.90;;;;;;4176968;28;20107;-59
2023/07/07 09:27:46;;;;;;;11.10;5.60;;;24.80;99.90;;;;;;4175714;28;20025;-65
2023/07/07 09:29:53;;;;;;;6.20;4.40;;;24.90;99.90;;;;;;4176505;28;20174;-60
2023/07/07 09:31:54;;;;;;;6.65;4.32;;;24.80;99.90;;;;;;4175530;28;20043;-60
2023/07/07 09:33:59;;;;;;;8.05;4.30;;;24.80;99.90;;;;;;4176850;28;20099;-65
2023/07/07 09:36:20;;;;;;;5.30;4.68;;;24.70;99.90;;;;;;4175709;28;20033;-61
2023/07/07 09:38:47;;;;;;;6.50;4.63;;;24.80;99.90;;;;;;4177343;28;20469;-60
2023/07/07 09:41:05;;;;;;;8.63;4.43;;;24.60;99.90;;;;;;4130382;28;20427;-60
2023/07/07 09:43:18;;;;;;;7.70;4.85;;;24.60;99.90;;;;;;4175868;28;20087;-60
2023/07/07 09:45:41;;;;;;;7.35;5.43;;;24.80;99.90;;;;;;4174994;28;20099;-60
2023/07/07 09:47:57;;;;;;;11.18;5.32;;;24.90;99.90;;;;;;4175835;28;20076;-59
2023/07/07 09:50:09;;;;;;;7.18;4.63;;;25.10;99.90;;;;;;4175910;28;20134;-61
2023/07/07 09:52:44;;;;;;;7.55;5.00;;;25.10;99.90;;;;;;4176582;28;20034;-60
2023/07/07 09:54:45;;;;;;;12.07;5.88;;;25.10;99.90;;;;;;4176158;28;20029;-60
2023/07/07 09:57:12;;;;;;;6.10;4.68;;;25.00;99.90;;;;;;4176089;28;20078;-60
2023/07/07 09:59:17;;;;;;;10.82;5.80;;;25.00;99.90;;;;;;4175888;28;20099;-61
2023/07/07 10:01:19;;;;;;;7.15;6.10;;;25.00;99.90;;;;;;4176135;28;20055;-60
2023/07/07 10:03:44;;;;;;;10.25;4.75;;;24.90;99.90;;;;;;4178465;28;20370;-58
2023/07/07 10:05:45;;;;;;;5.32;4.57;;;24.60;99.90;;;;;;4178296;28;20060;-59
2023/07/07 10:07:47;;;;;;;8.52;5.97;;;24.30;99.90;;;;;;4178881;28;20098;-60
2023/07/07 10:09:49;;;;;;;6.35;5.57;;;24.30;99.90;;;;;;4178266;28;20041;-60
2023/07/07 10:11:51;;;;;;;7.70;6.00;;;24.40;99.90;;;;;;4178904;28;20025;-62
2023/07/07 10:13:53;;;;;;;6.63;5.57;;;24.70;99.90;;;;;;4178534;28;20093;-61
2023/07/07 10:16:02;;;;;;;8.40;5.45;;;24.70;99.90;;;;;;4178460;28;20424;-63
2023/07/07 10:18:15;;;;;;;11.32;5.63;;;24.90;99.90;;;;;;4179560;28;20029;-60
2023/07/07 10:20:16;;;;;;;12.63;5.95;;;25.10;99.90;;;;;;4178588;28;20083;-61
2023/07/07 10:22:19;;;;;;;9.20;5.95;;;25.20;99.90;;;;;;4178784;28;20036;-60
2023/07/07 10:24:20;;;;;;;9.80;5.97;;;25.20;99.90;;;;;;4177768;28;20480;-61
2023/07/07 10:26:23;;;;;;;16.15;6.45;;;25.00;99.90;;;;;;4178960;28;20041;-61
2023/07/07 10:28:24;;;;;;;8.20;5.95;;;25.00;99.90;;;;;;4177531;28;20034;-59
2023/07/07 10:30:26;;;;;;;6.50;5.72;;;25.00;99.90;;;;;;4179470;28;20461;-61
2023/07/07 10:32:27;;;;;;;7.65;5.78;;;25.00;99.90;;;;;;4177457;28;20091;-61
2023/07/07 10:34:43;;;;;;;12.93;5.93;;;24.80;99.90;;;;;;4179421;28;20021;-60
2023/07/07 10:36:44;;;;;;;8.75;5.32;;;24.70;99.90;;;;;;4178035;28;20040;-60
2023/07/07 10:38:45;;;;;;;7.20;5.95;;;24.60;99.90;;;;;;4178786;28;20044;-60
2023/07/07 10:40:48;;;;;;;11.10;6.07;;;24.50;99.90;;;;;;4177551;28;20500;-60
2023/07/07 10:42:54;;;;;;;7.22;5.30;;;24.60;99.90;;;;;;4178994;28;20063;-61
2023/07/07 10:44:58;;;;;;;9.40;5.78;;;24.80;99.90;;;;;;4177761;28;20037;-61